createdAt,value
2022-10-30T00:00:29.019Z,60.70
2022-10-30T00:02:56.026Z,61.00
2022-10-30T00:05:23.601Z,60.83
2022-10-30T00:07:50.659Z,61.29
2022-10-30T00:10:18.003Z,61.30
2022-10-30T00:12:44.620Z,61.35
2022-10-30T00:15:12.104Z,60.94
2022-10-30T00:17:38.702Z,61.24
2022-10-30T00:20:06.358Z,60.58
2022-10-30T00:22:33.132Z,61.07
2022-10-30T00:24:59.653Z,60.73
2022-10-30T00:27:26.203Z,60.84
2022-10-30T00:29:55.770Z,61.39
2022-10-30T00:32:22.316Z,61.08
2022-10-30T00:34:48.888Z,61.53
2022-10-30T00:37:15.527Z,61.59
2022-10-30T00:39:42.125Z,61.79
2022-10-30T00:42:13.200Z,61.42
2022-10-30T00:44:46.054Z,61.61
2022-10-30T00:47:27.837Z,61.67
2022-10-30T00:50:22.747Z,61.84
2022-10-30T00:52:54.936Z,62.07
2022-10-30T00:55:31.486Z,62.27
2022-10-30T00:58:01.766Z,62.18
2022-10-30T01:00:31.031Z,62.36
2022-10-30T01:02:59.167Z,62.26
2022-10-30T01:05:28.810Z,62.24
2022-10-30T01:07:55.603Z,62.36
2022-10-30T01:10:23.882Z,62.58
2022-10-30T01:12:52.319Z,63.00
2022-10-30T01:15:29.025Z,63.17
2022-10-30T01:18:04.311Z,63.19
2022-10-30T01:20:37.011Z,63.54
2022-10-30T01:23:19.600Z,63.37
2022-10-30T01:26:06.634Z,63.53
2022-10-30T01:28:55.383Z,63.47
2022-10-30T01:31:31.065Z,63.95
2022-10-30T01:34:14.494Z,63.99
2022-10-30T01:36:52.054Z,64.12
2022-10-30T01:39:25.429Z,64.49
2022-10-30T01:41:52.593Z,64.87
2022-10-30T01:44:26.034Z,64.78
2022-10-30T01:47:33.864Z,64.86
2022-10-30T01:50:34.078Z,65.52
2022-10-30T01:53:22.795Z,65.62
2022-10-30T01:56:10.785Z,65.80
2022-10-30T01:58:48.735Z,65.68
2022-10-30T02:01:15.797Z,66.13
2022-10-30T02:03:42.825Z,65.83
2022-10-30T02:06:09.330Z,65.82
2022-10-30T02:08:35.994Z,65.92
2022-10-30T02:11:02.751Z,66.50
2022-10-30T02:13:29.771Z,66.57
2022-10-30T02:15:59.508Z,66.39
2022-10-30T02:18:26.015Z,66.69
2022-10-30T02:20:52.610Z,66.31
2022-10-30T02:23:20.051Z,66.76
2022-10-30T02:25:46.568Z,66.51
2022-10-30T02:28:13.167Z,67.05
2022-10-30T02:30:40.998Z,66.76
2022-10-30T02:33:07.610Z,66.80
2022-10-30T02:35:35.427Z,67.14
2022-10-30T02:38:03.332Z,67.43
2022-10-30T02:40:29.870Z,67.81
2022-10-30T02:42:56.434Z,67.80
2022-10-30T02:45:23.089Z,67.76
2022-10-30T02:47:49.741Z,67.78
2022-10-30T02:50:17.056Z,67.74
2022-10-30T02:52:43.891Z,68.29
2022-10-30T02:55:10.503Z,68.38
2022-10-30T02:57:37.199Z,68.71
2022-10-30T03:00:05.101Z,68.32
2022-10-30T03:02:31.652Z,68.65
2022-10-30T03:04:58.195Z,68.65
2022-10-30T03:07:24.732Z,68.98
2022-10-30T03:09:52.360Z,69.32
2022-10-30T03:12:19.224Z,69.08
2022-10-30T03:14:45.883Z,69.71
2022-10-30T03:17:12.454Z,69.54
2022-10-30T03:19:41.174Z,69.85
2022-10-30T03:22:08.036Z,69.89
2022-10-30T03:24:34.576Z,69.91
2022-10-30T03:27:01.214Z,69.96
2022-10-30T03:29:28.728Z,70.41
2022-10-30T03:31:55.613Z,70.81
2022-10-30T03:34:22.254Z,70.46
2022-10-30T03:36:49.268Z,70.76
2022-10-30T03:39:15.850Z,70.64
2022-10-30T03:41:43.566Z,71.03
2022-10-30T03:44:10.120Z,70.91
2022-10-30T03:46:36.985Z,71.10
2022-10-30T03:49:03.780Z,70.95
2022-10-30T03:51:30.280Z,70.91
2022-10-30T03:53:56.930Z,71.40
2022-10-30T03:56:23.694Z,71.09
2022-10-30T03:58:50.531Z,70.88
2022-10-30T04:01:17.138Z,71.28
2022-10-30T04:03:44.011Z,71.30
2022-10-30T04:06:10.639Z,71.30
2022-10-30T04:08:37.236Z,71.73
2022-10-30T04:11:04.224Z,71.88
2022-10-30T04:13:30.906Z,71.65
2022-10-30T04:15:58.378Z,72.27
2022-10-30T04:18:25.565Z,72.21
2022-10-30T04:20:52.089Z,72.05
2022-10-30T04:23:20.619Z,72.37
2022-10-30T04:25:47.569Z,72.42
2022-10-30T04:28:14.192Z,72.37
2022-10-30T04:30:41.049Z,72.51
2022-10-30T04:33:11.248Z,72.53
2022-10-30T04:35:38.839Z,72.90
2022-10-30T04:38:07.867Z,72.84
2022-10-30T04:40:36.826Z,72.49
2022-10-30T04:43:04.061Z,72.94
2022-10-30T04:45:31.263Z,73.13
2022-10-30T04:48:03.248Z,73.23
2022-10-30T04:50:30.836Z,73.41
2022-10-30T04:53:10.692Z,73.13
2022-10-30T04:55:37.294Z,73.81
2022-10-30T04:58:03.800Z,73.87
2022-10-30T05:00:31.854Z,73.84
2022-10-30T05:03:00.762Z,74.06
2022-10-30T05:05:31.464Z,73.57
2022-10-30T05:07:58.313Z,73.91
2022-10-30T05:10:25.301Z,73.43
2022-10-30T05:12:55.866Z,73.86
2022-10-30T05:15:22.438Z,74.37
2022-10-30T05:17:53.980Z,74.06
2022-10-30T05:20:21.443Z,73.83
2022-10-30T05:22:56.124Z,74.29
2022-10-30T05:25:24.008Z,74.40
2022-10-30T05:27:50.626Z,74.52
2022-10-30T05:30:17.324Z,74.38
2022-10-30T05:32:43.804Z,73.89
2022-10-30T05:35:10.328Z,74.08
2022-10-30T05:37:36.996Z,74.30
2022-10-30T05:40:03.765Z,74.02
2022-10-30T05:42:30.330Z,74.59
2022-10-30T05:45:01.719Z,74.48
2022-10-30T05:47:29.197Z,74.17
2022-10-30T05:49:55.944Z,74.06
2022-10-30T05:52:22.452Z,74.33
2022-10-30T05:54:48.978Z,73.98
2022-10-30T05:57:15.473Z,74.34
2022-10-30T05:59:42.011Z,74.30
2022-10-30T06:04:44.310Z,74.49
2022-10-30T06:07:11.365Z,74.25
2022-10-30T06:09:37.869Z,74.59
2022-10-30T06:12:04.704Z,74.96
2022-10-30T06:14:31.253Z,74.44
2022-10-30T06:16:58.025Z,74.57
2022-10-30T06:19:24.621Z,74.52
2022-10-30T06:21:51.144Z,74.59
2022-10-30T06:24:18.139Z,74.80
2022-10-30T06:26:44.649Z,74.45
2022-10-30T06:29:11.152Z,74.89
2022-10-30T06:31:37.665Z,74.40
2022-10-30T06:34:05.435Z,74.58
2022-10-30T06:36:32.180Z,74.92
2022-10-30T06:38:59.058Z,74.89
2022-10-30T06:41:29.196Z,74.71
2022-10-30T06:43:57.397Z,74.84
2022-10-30T06:46:27.010Z,75.18
2022-10-30T06:48:57.921Z,74.98
2022-10-30T06:51:24.773Z,74.85
2022-10-30T06:53:51.253Z,74.98
2022-10-30T06:56:18.138Z,75.09
2022-10-30T06:58:44.682Z,74.98
2022-10-30T07:01:11.404Z,75.00
2022-10-30T07:03:38.008Z,74.67
2022-10-30T07:06:04.872Z,74.95
2022-10-30T07:08:31.491Z,74.71
2022-10-30T07:10:58.734Z,74.69
2022-10-30T07:13:25.478Z,74.90
2022-10-30T07:15:54.382Z,74.58
2022-10-30T07:18:20.971Z,74.69
2022-10-30T07:20:47.477Z,74.66
2022-10-30T07:23:13.960Z,74.65
2022-10-30T07:25:40.429Z,74.27
2022-10-30T07:28:09.743Z,74.36
2022-10-30T07:30:36.270Z,73.92
2022-10-30T07:33:05.348Z,74.08
2022-10-30T07:35:33.618Z,73.61
2022-10-30T07:38:11.407Z,73.14
2022-10-30T07:40:37.944Z,73.06
2022-10-30T07:43:05.210Z,72.88
2022-10-30T07:45:32.158Z,73.01
2022-10-30T07:47:58.988Z,72.77
2022-10-30T07:50:25.747Z,72.59
2022-10-30T07:52:52.244Z,72.62
2022-10-30T07:55:18.946Z,71.69
2022-10-30T07:57:45.472Z,71.45
2022-10-30T08:00:14.033Z,70.96
2022-10-30T08:02:41.186Z,70.79
2022-10-30T08:05:08.569Z,70.85
2022-10-30T08:07:37.904Z,70.44
2022-10-30T08:10:05.701Z,70.42
2022-10-30T08:12:33.574Z,70.36
2022-10-30T08:15:00.127Z,69.62
2022-10-30T08:17:26.687Z,69.57
2022-10-30T08:19:53.563Z,69.35
2022-10-30T08:22:20.066Z,69.12
2022-10-30T08:24:47.082Z,68.25
2022-10-30T08:27:13.601Z,67.78
2022-10-30T08:29:42.627Z,67.85
2022-10-30T08:32:09.923Z,67.63
2022-10-30T08:34:36.381Z,67.50
2022-10-30T08:37:02.917Z,67.17
2022-10-30T08:39:29.487Z,67.17
2022-10-30T08:41:58.670Z,67.23
2022-10-30T08:44:25.268Z,67.40
2022-10-30T08:46:51.823Z,67.60
2022-10-30T08:49:18.375Z,67.08
2022-10-30T08:51:46.130Z,66.99
2022-10-30T08:54:12.790Z,66.43
2022-10-30T08:56:39.314Z,65.82
2022-10-30T08:59:05.794Z,65.88
2022-10-30T09:01:32.607Z,65.71
2022-10-30T09:03:59.204Z,65.10
2022-10-30T09:06:25.723Z,64.76
2022-10-30T09:08:52.387Z,63.96
2022-10-30T09:11:18.984Z,64.17
2022-10-30T09:13:45.514Z,63.67
2022-10-30T09:16:12.588Z,64.19
2022-10-30T09:18:39.144Z,63.74
2022-10-30T09:21:05.841Z,63.81
2022-10-30T09:23:32.567Z,62.96
2022-10-30T09:25:59.210Z,62.68
2022-10-30T09:28:25.754Z,62.62
2022-10-30T09:30:52.959Z,62.43
2022-10-30T09:33:19.466Z,62.23
2022-10-30T09:35:45.995Z,61.86
2022-10-30T09:38:13.121Z,61.64
2022-10-30T09:40:44.588Z,60.80
2022-10-30T09:43:19.064Z,60.80
2022-10-30T09:46:10.450Z,61.53
2022-10-30T09:48:49.171Z,60.22
2022-10-30T09:51:18.657Z,60.28
2022-10-30T09:54:02.592Z,60.56
2022-10-30T09:56:36.370Z,60.50
2022-10-30T09:59:02.883Z,60.01
2022-10-30T10:02:02.644Z,59.77
2022-10-30T10:04:38.409Z,60.01
2022-10-30T10:07:16.658Z,60.05
2022-10-30T10:09:44.470Z,59.87
2022-10-30T10:12:36.961Z,59.63
2022-10-30T10:15:11.491Z,59.53
2022-10-30T10:17:42.231Z,59.95
2022-10-30T10:20:32.633Z,59.84
2022-10-30T10:23:05.290Z,59.56
2022-10-30T10:25:31.798Z,59.17
2022-10-30T10:28:32.850Z,59.17
2022-10-30T10:31:13.241Z,59.65
2022-10-30T10:33:55.153Z,59.20
2022-10-30T10:36:36.466Z,58.98
2022-10-30T10:39:23.470Z,59.21
2022-10-30T10:42:13.606Z,59.10
2022-10-30T10:44:48.825Z,59.28
2022-10-30T10:47:46.048Z,59.27
2022-10-30T10:50:21.858Z,59.10
2022-10-30T10:52:56.613Z,59.33
2022-10-30T10:55:27.925Z,59.18
2022-10-30T10:57:59.780Z,59.06
2022-10-30T11:00:29.079Z,58.91
2022-10-30T11:05:52.758Z,58.64
2022-10-30T11:08:25.590Z,58.53
2022-10-30T11:10:58.121Z,58.56
2022-10-30T11:13:46.112Z,58.69
2022-10-30T11:16:24.508Z,58.82
2022-10-30T11:18:56.382Z,58.92
2022-10-30T11:21:24.924Z,59.02
2022-10-30T11:23:51.819Z,59.21
2022-10-30T11:26:18.340Z,58.75
2022-10-30T11:28:52.796Z,58.98
2022-10-30T11:31:21.166Z,58.92
2022-10-30T11:33:48.345Z,58.72
2022-10-30T11:36:17.824Z,58.76
2022-10-30T11:38:44.439Z,58.67
2022-10-30T11:41:11.880Z,57.92
2022-10-30T11:43:41.186Z,57.87
2022-10-30T11:46:11.826Z,57.61
2022-10-30T11:48:43.347Z,57.71
2022-10-30T11:51:11.536Z,57.69
2022-10-30T11:53:47.303Z,57.26
2022-10-30T11:56:20.253Z,57.46
2022-10-30T11:58:53.359Z,56.89
2022-10-30T12:01:28.649Z,57.26
2022-10-30T12:03:56.639Z,57.09
2022-10-30T12:06:23.082Z,56.93
2022-10-30T12:09:17.438Z,56.91
2022-10-30T12:11:44.762Z,56.39
2022-10-30T12:14:19.411Z,56.49
2022-10-30T12:16:48.848Z,57.03
2022-10-30T12:19:17.899Z,57.00
2022-10-30T12:21:48.753Z,56.83
2022-10-30T12:24:23.731Z,56.53
2022-10-30T12:26:54.186Z,55.92
2022-10-30T12:29:36.554Z,55.75
2022-10-30T12:32:18.797Z,55.61
2022-10-30T12:35:11.478Z,55.79
2022-10-30T12:37:43.752Z,56.14
2022-10-30T12:40:24.808Z,55.55
2022-10-30T12:42:58.906Z,55.10
2022-10-30T12:45:34.337Z,54.80
2022-10-30T12:48:16.631Z,54.64
2022-10-30T12:51:08.429Z,54.48
2022-10-30T12:53:44.673Z,54.37
2022-10-30T12:56:27.263Z,54.15
2022-10-30T12:59:32.340Z,54.70
2022-10-30T13:02:15.935Z,54.38
2022-10-30T13:04:48.298Z,54.17
2022-10-30T13:07:26.760Z,53.77
2022-10-30T13:10:10.480Z,53.80
2022-10-30T13:12:40.727Z,54.18
2022-10-30T13:15:17.205Z,54.14
2022-10-30T13:17:44.072Z,54.53
2022-10-30T13:20:14.226Z,54.47
2022-10-30T13:22:58.237Z,54.57
2022-10-30T13:25:33.140Z,54.25
2022-10-30T13:28:25.725Z,54.83
2022-10-30T13:31:18.746Z,54.96
2022-10-30T13:33:58.480Z,55.01
2022-10-30T13:36:31.088Z,56.06
2022-10-30T13:39:21.041Z,55.92
2022-10-30T13:41:56.819Z,56.05
2022-10-30T13:44:37.842Z,56.14
2022-10-30T13:47:13.338Z,56.20
2022-10-30T13:49:57.024Z,56.20
2022-10-30T13:55:26.337Z,60.78
2022-10-30T13:58:26.297Z,60.27
2022-10-30T14:01:15.236Z,59.81
2022-10-30T14:03:44.902Z,60.68
2022-10-30T14:06:35.763Z,61.00
2022-10-30T14:09:17.602Z,59.18
2022-10-30T14:11:44.503Z,57.63
2022-10-30T14:14:23.316Z,57.52
2022-10-30T14:17:08.402Z,57.32
2022-10-30T14:20:15.170Z,57.65
2022-10-30T14:22:41.838Z,57.89
2022-10-30T14:25:16.274Z,58.14
2022-10-30T14:27:42.851Z,58.72
2022-10-30T14:30:20.072Z,58.35
2022-10-30T14:32:53.065Z,58.24
2022-10-30T14:35:33.830Z,58.67
2022-10-30T14:38:09.304Z,58.93
2022-10-30T14:40:56.371Z,58.78
2022-10-30T14:43:36.388Z,59.46
2022-10-30T14:46:19.912Z,59.20
2022-10-30T14:49:00.405Z,59.60
2022-10-30T14:51:45.243Z,59.26
2022-10-30T14:54:34.096Z,59.58
2022-10-30T14:57:01.020Z,59.63
2022-10-30T14:59:34.781Z,60.41
2022-10-30T15:02:13.630Z,59.90
2022-10-30T15:04:55.585Z,60.37
2022-10-30T15:07:45.452Z,60.14
2022-10-30T15:10:24.585Z,59.90
2022-10-30T15:12:51.225Z,59.99
2022-10-30T15:15:18.950Z,60.68
2022-10-30T15:17:52.092Z,60.58
2022-10-30T15:20:22.674Z,60.67
2022-10-30T15:22:54.604Z,61.01
2022-10-30T15:25:24.514Z,61.36
2022-10-30T15:27:54.597Z,61.60
2022-10-30T15:30:24.274Z,61.78
2022-10-30T15:32:51.163Z,61.83
2022-10-30T15:35:21.844Z,62.26
2022-10-30T15:38:09.765Z,62.41
2022-10-30T15:40:38.339Z,63.10
2022-10-30T15:43:07.801Z,63.69
2022-10-30T15:45:40.980Z,63.97
2022-10-30T15:48:12.143Z,64.81
2022-10-30T15:50:43.054Z,64.98
2022-10-30T15:53:19.207Z,64.84
2022-10-30T15:55:46.922Z,64.98
2022-10-30T15:58:17.794Z,65.68
2022-10-30T16:00:56.315Z,65.34
2022-10-30T16:03:22.923Z,65.65
2022-10-30T16:05:49.465Z,65.63
2022-10-30T16:08:24.674Z,65.68
2022-10-30T16:10:55.813Z,65.87
2022-10-30T16:13:28.754Z,66.41
2022-10-30T16:15:55.609Z,66.87
2022-10-30T16:18:28.216Z,66.90
2022-10-30T16:20:58.434Z,66.79
2022-10-30T16:23:25.101Z,67.08
2022-10-30T16:25:59.713Z,66.76
2022-10-30T16:28:33.276Z,67.13
2022-10-30T16:31:07.056Z,67.42
2022-10-30T16:33:35.795Z,67.58
2022-10-30T16:36:04.914Z,67.60
2022-10-30T16:38:37.066Z,67.68
2022-10-30T16:41:08.235Z,67.19
2022-10-30T16:43:35.641Z,66.76
2022-10-30T16:46:14.863Z,67.40
2022-10-30T16:48:47.073Z,67.06
2022-10-30T16:51:17.955Z,68.05
2022-10-30T16:54:02.441Z,68.15
2022-10-30T16:56:31.428Z,67.85
2022-10-30T16:59:07.870Z,67.66
2022-10-30T17:01:35.558Z,67.51
2022-10-30T17:04:02.541Z,68.01
2022-10-30T17:06:35.797Z,68.30
2022-10-30T17:09:08.150Z,68.73
2022-10-30T17:11:43.859Z,69.25
2022-10-30T17:14:22.114Z,69.33
2022-10-30T17:17:00.225Z,69.36
2022-10-30T17:19:32.718Z,69.74
2022-10-30T17:22:02.534Z,70.05
2022-10-30T17:24:32.770Z,70.43
2022-10-30T17:27:04.574Z,70.68
2022-10-30T17:29:37.188Z,70.89
2022-10-30T17:32:06.253Z,71.02
2022-10-30T17:34:38.884Z,70.79
2022-10-30T17:37:08.359Z,71.32
2022-10-30T17:39:34.887Z,71.15
2022-10-30T17:42:01.680Z,71.51
2022-10-30T17:44:35.671Z,71.96
2022-10-30T17:47:14.904Z,71.74
2022-10-30T17:49:41.594Z,72.01
2022-10-30T17:52:14.997Z,71.77
2022-10-30T17:54:42.192Z,72.02
2022-10-30T17:57:12.869Z,72.10
2022-10-30T17:59:40.659Z,72.05
2022-10-30T18:02:14.423Z,72.16
2022-10-30T18:04:43.626Z,71.67
2022-10-30T18:07:12.405Z,71.89
2022-10-30T18:09:39.545Z,71.84
2022-10-30T18:12:08.089Z,72.44
2022-10-30T18:14:34.562Z,72.64
2022-10-30T18:17:01.018Z,72.97
2022-10-30T18:19:27.572Z,72.94
2022-10-30T18:21:54.671Z,73.10
2022-10-30T18:24:21.446Z,73.18
2022-10-30T18:26:48.015Z,73.35
2022-10-30T18:29:14.667Z,72.94
2022-10-30T18:31:41.368Z,73.35
2022-10-30T18:34:21.226Z,73.66
2022-10-30T18:36:48.538Z,73.52
2022-10-30T18:39:15.062Z,73.25
2022-10-30T18:41:44.153Z,73.61
2022-10-30T18:44:14.657Z,73.57
2022-10-30T18:46:41.491Z,73.69
2022-10-30T18:49:08.137Z,73.76
2022-10-30T18:51:34.674Z,73.08
2022-10-30T18:54:01.220Z,72.89
2022-10-30T18:56:29.665Z,73.11
2022-10-30T18:59:00.679Z,73.43
2022-10-30T19:01:32.192Z,73.19
2022-10-30T19:04:03.874Z,73.12
2022-10-30T19:06:30.801Z,73.20
2022-10-30T19:08:58.630Z,73.24
2022-10-30T19:11:25.819Z,72.83
2022-10-30T19:13:54.494Z,73.23
2022-10-30T19:16:25.451Z,73.42
2022-10-30T19:18:52.580Z,73.32
2022-10-30T19:21:21.832Z,73.28
2022-10-30T19:23:48.480Z,73.24
2022-10-30T19:26:17.683Z,73.11
2022-10-30T19:28:45.673Z,73.47
2022-10-30T19:31:17.086Z,73.39
2022-10-30T19:33:43.721Z,73.46
2022-10-30T19:36:31.346Z,73.59
2022-10-30T19:38:58.042Z,73.29
2022-10-30T19:41:25.048Z,73.57
2022-10-30T19:43:52.605Z,73.40
2022-10-30T19:46:19.119Z,73.78
2022-10-30T19:49:01.094Z,73.41
2022-10-30T19:51:28.713Z,74.19
2022-10-30T19:53:55.529Z,73.90
2022-10-30T19:56:22.246Z,74.09
2022-10-30T19:58:49.107Z,74.22
2022-10-30T20:01:16.246Z,73.93
2022-10-30T20:03:43.015Z,74.39
2022-10-30T20:06:12.250Z,74.89
2022-10-30T20:08:38.796Z,74.95
2022-10-30T20:11:05.441Z,75.14
2022-10-30T20:13:33.519Z,75.13
2022-10-30T20:16:03.409Z,75.39
2022-10-30T20:18:31.738Z,75.52
2022-10-30T20:21:04.467Z,75.51
2022-10-30T20:23:31.062Z,75.78
2022-10-30T20:26:02.919Z,75.68
2022-10-30T20:28:38.169Z,75.88
2022-10-30T20:31:06.112Z,76.39
2022-10-30T20:33:33.171Z,76.31
2022-10-30T20:35:59.730Z,76.43
2022-10-30T20:38:32.755Z,76.88
2022-10-30T20:41:01.519Z,76.59
2022-10-30T20:43:36.657Z,76.47
2022-10-30T20:46:05.043Z,76.77
2022-10-30T20:48:32.097Z,76.74
2022-10-30T20:51:01.117Z,76.17
2022-10-30T20:53:29.335Z,76.54
2022-10-30T20:55:56.694Z,76.59
2022-10-30T20:58:23.845Z,76.36
2022-10-30T21:00:50.863Z,76.29
2022-10-30T21:03:17.373Z,76.33
2022-10-30T21:05:45.949Z,76.48
2022-10-30T21:08:14.113Z,76.08
2022-10-30T21:10:42.363Z,76.79
2022-10-30T21:13:10.299Z,76.92
2022-10-30T21:15:44.867Z,76.77
2022-10-30T21:18:13.212Z,77.13
2022-10-30T21:20:41.045Z,77.49
2022-10-30T21:23:08.248Z,76.96
2022-10-30T21:25:35.841Z,77.21
2022-10-30T21:28:04.264Z,77.71
2022-10-30T21:30:31.104Z,77.34
2022-10-30T21:32:59.224Z,77.48
2022-10-30T21:35:26.859Z,77.04
2022-10-30T21:37:53.328Z,77.18
2022-10-30T21:40:19.808Z,77.34
2022-10-30T21:42:49.225Z,76.72
2022-10-30T21:45:16.032Z,77.07
2022-10-30T21:47:42.478Z,77.11
2022-10-30T21:50:12.141Z,76.54
2022-10-30T21:52:39.761Z,76.08
2022-10-30T21:55:06.546Z,76.26
2022-10-30T21:57:33.017Z,76.04
2022-10-30T22:00:01.793Z,76.35
2022-10-30T22:02:32.562Z,75.95
2022-10-30T22:04:59.043Z,76.34
2022-10-30T22:07:25.518Z,76.20
2022-10-30T22:09:53.569Z,76.28
2022-10-30T22:12:20.239Z,76.24
2022-10-30T22:14:46.700Z,76.24
2022-10-30T22:17:13.257Z,76.85
2022-10-30T22:19:39.795Z,76.79
2022-10-30T22:22:06.831Z,76.72
2022-10-30T22:24:33.290Z,76.70
2022-10-30T22:26:59.793Z,77.04
2022-10-30T22:29:26.234Z,76.99
2022-10-30T22:31:52.776Z,77.25
2022-10-30T22:34:19.446Z,76.98
2022-10-30T22:36:46.967Z,77.30
2022-10-30T22:39:14.382Z,77.00
2022-10-30T22:41:41.917Z,77.14
2022-10-30T22:44:13.301Z,77.16
2022-10-30T22:46:40.346Z,76.93
2022-10-30T22:49:07.994Z,77.19
2022-10-30T22:51:37.141Z,76.40
2022-10-30T22:54:05.741Z,77.12
2022-10-30T22:56:34.146Z,77.39
2022-10-30T22:59:02.309Z,77.69
2022-10-30T23:01:31.552Z,77.50
2022-10-30T23:04:00.615Z,77.63
2022-10-30T23:06:28.493Z,77.77
2022-10-30T23:08:58.216Z,78.09
2022-10-30T23:11:25.286Z,77.87
2022-10-30T23:13:51.998Z,78.09
2022-10-30T23:16:21.235Z,78.07
2022-10-30T23:18:48.940Z,77.77
2022-10-30T23:21:20.055Z,78.06
2022-10-30T23:23:46.843Z,77.69
2022-10-30T23:26:25.171Z,78.10
2022-10-30T23:28:53.665Z,78.08
2022-10-30T23:31:27.481Z,78.12
2022-10-30T23:33:57.224Z,78.19
2022-10-30T23:36:24.299Z,78.14
2022-10-30T23:38:55.658Z,78.35
2022-10-30T23:41:23.688Z,78.46
2022-10-30T23:43:53.657Z,78.80
2022-10-30T23:46:20.507Z,79.26
2022-10-30T23:48:46.985Z,78.99
2022-10-30T23:51:13.695Z,78.92
2022-10-30T23:53:40.194Z,78.92
2022-10-30T23:56:07.407Z,78.78
2022-10-30T23:58:34.270Z,78.80
